Time;durP1;ratioP1;P1;durP2;ratioP2;P2;SDS_P1;SDS_P2;PMS_P1;PMS_P2;Temp;Humidity;BMP_temperature;BMP_pressure;BME280_temperature;BME280_humidity;BME280_pressure;Samples;Min_cycle;Max_cycle;Signal;HPM_P1;HPM_P2
2024/02/14 00:01:14;;;;;;;7.47;5.30;;;;;;;6.43;58.59;96668.06;5025157;28;20187;-68
2024/02/14 00:03:40;;;;;;;7.13;5.53;;;;;;;6.38;59.03;96664.72;5025560;28;20419;-68
2024/02/14 00:06:06;;;;;;;7.67;5.63;;;;;;;6.07;59.61;96674.94;5025565;28;20215;-69
2024/02/14 00:08:31;;;;;;;6.57;4.87;;;;;;;5.95;60.14;96668.25;5025683;28;20653;-70
2024/02/14 00:10:57;;;;;;;8.40;5.30;;;;;;;5.50;61.53;96671.75;5025464;28;20532;-69
2024/02/14 00:13:22;;;;;;;7.93;5.67;;;;;;;5.70;60.89;96675.72;5025903;28;20175;-68
2024/02/14 00:15:48;;;;;;;8.30;5.07;;;;;;;5.70;60.89;96671.34;5025942;28;20178;-69
2024/02/14 00:18:15;;;;;;;7.40;4.90;;;;;;;6.04;59.99;96673.28;5026090;28;20223;-68
2024/02/14 00:20:40;;;;;;;7.40;5.07;;;;;;;6.02;59.87;96680.25;5029095;28;20770;-71
2024/02/14 00:23:06;;;;;;;8.23;4.83;;;;;;;6.08;59.90;96681.91;5029717;28;20414;-68
2024/02/14 00:25:31;;;;;;;11.87;5.87;;;;;;;5.88;59.93;96683.16;5029539;28;20179;-66
2024/02/14 00:27:58;;;;;;;8.80;6.30;;;;;;;5.76;60.39;96680.78;5029625;28;20538;-68
2024/02/14 00:30:24;;;;;;;5.00;4.20;;;;;;;5.82;60.32;96675.44;5028774;28;20233;-69
2024/02/14 00:32:50;;;;;;;7.87;5.00;;;;;;;5.78;59.98;96675.53;5028485;28;20422;-69
2024/02/14 00:35:15;;;;;;;6.43;4.37;;;;;;;5.80;59.88;96681.59;5028285;28;20290;-68
2024/02/14 00:37:41;;;;;;;8.43;6.00;;;;;;;5.80;60.59;96686.78;5028724;28;20195;-69
2024/02/14 00:40:07;;;;;;;10.70;4.77;;;;;;;5.75;60.60;96686.03;5028797;28;20663;-68
2024/02/14 00:42:32;;;;;;;9.27;5.07;;;;;;;5.82;60.89;96680.66;5028921;28;20878;-69
2024/02/14 00:44:57;;;;;;;13.83;6.10;;;;;;;5.65;61.64;96680.16;5028413;28;20411;-67
2024/02/14 00:47:23;;;;;;;10.17;5.90;;;;;;;5.68;61.72;96680.09;5028595;28;20207;-68
2024/02/14 00:49:48;;;;;;;16.20;5.77;;;;;;;5.74;61.72;96687.78;5028691;28;20163;-69
2024/02/14 00:52:14;;;;;;;10.37;5.33;;;;;;;5.75;61.35;96689.50;5028708;28;20186;-69
2024/02/14 00:54:39;;;;;;;8.53;5.70;;;;;;;5.63;61.65;96685.38;5029874;28;20693;-68
2024/02/14 00:57:05;;;;;;;15.10;5.17;;;;;;;5.65;61.77;96685.38;5028400;28;20191;-69
2024/02/14 00:59:30;;;;;;;7.17;6.40;;;;;;;5.70;62.04;96684.38;5028201;28;20196;-68
2024/02/14 01:01:55;;;;;;;7.67;5.77;;;;;;;5.66;62.04;96687.91;5027907;28;20179;-69
2024/02/14 01:04:21;;;;;;;7.50;5.60;;;;;;;5.64;62.18;96689.69;5028579;28;20185;-67
2024/02/14 01:06:48;;;;;;;6.83;6.13;;;;;;;5.66;62.44;96694.88;5028381;28;20202;-69
2024/02/14 01:09:13;;;;;;;10.77;5.90;;;;;;;5.60;62.63;96697.59;5028126;28;20635;-68
2024/02/14 01:11:38;;;;;;;7.50;5.80;;;;;;;5.55;63.14;96694.22;5027804;28;20425;-68
2024/02/14 01:14:04;;;;;;;14.77;6.90;;;;;;;5.61;63.17;96700.16;5027940;28;20167;-68
2024/02/14 01:16:30;;;;;;;9.40;6.37;;;;;;;5.52;62.91;96703.81;5028574;28;20171;-69
2024/02/14 01:18:55;;;;;;;6.07;5.13;;;;;;;5.43;63.44;96716.13;5028276;28;21093;-68
2024/02/14 01:21:20;;;;;;;6.00;5.33;;;;;;;5.50;62.65;96713.41;5027940;28;20646;-68
2024/02/14 01:23:46;;;;;;;11.00;6.53;;;;;;;5.65;62.49;96707.03;5028276;28;20202;-68
2024/02/14 01:26:11;;;;;;;7.10;6.10;;;;;;;5.66;62.64;96707.91;5028301;28;20485;-69
2024/02/14 01:28:37;;;;;;;7.47;5.90;;;;;;;5.62;62.50;96701.03;5027644;28;20187;-67
2024/02/14 01:31:03;;;;;;;7.30;6.60;;;;;;;5.51;62.57;96701.25;5027025;28;20747;-68
2024/02/14 01:33:30;;;;;;;6.80;5.63;;;;;;;5.41;63.02;96699.69;5028705;28;20573;-69
2024/02/14 01:35:56;;;;;;;6.67;6.00;;;;;;;5.46;62.68;96710.91;5028462;28;20566;-68
2024/02/14 01:38:21;;;;;;;12.53;6.93;;;;;;;5.48;62.81;96709.09;5029059;28;20430;-68
2024/02/14 01:40:47;;;;;;;10.57;6.40;;;;;;;5.51;62.74;96703.84;5028871;28;20176;-67
2024/02/14 01:43:14;;;;;;;11.30;7.53;;;;;;;5.48;62.38;96703.88;5028406;28;20651;-69
2024/02/14 01:45:40;;;;;;;7.30;6.33;;;;;;;5.43;62.56;96692.72;5028612;28;20257;-69
2024/02/14 01:48:06;;;;;;;8.30;6.50;;;;;;;5.47;63.02;96696.97;5028501;28;20933;-68
2024/02/14 01:50:33;;;;;;;9.30;6.37;;;;;;;5.33;63.18;96696.38;5028560;28;20175;-69
2024/02/14 01:52:59;;;;;;;17.40;7.50;;;;;;;5.41;62.79;96689.28;5027879;28;20406;-69
2024/02/14 01:55:26;;;;;;;11.60;5.60;;;;;;;5.32;63.02;96690.31;5028783;28;21295;-69
2024/02/14 01:57:52;;;;;;;10.20;7.50;;;;;;;5.53;62.62;96696.88;5028382;28;20492;-68
2024/02/14 02:00:18;;;;;;;13.27;8.73;;;;;;;5.42;62.98;96693.59;5031315;28;20461;-68
2024/02/14 02:02:44;;;;;;;8.63;6.80;;;;;;;5.55;62.08;96689.00;5030135;28;20419;-68
2024/02/14 02:05:09;;;;;;;11.73;7.40;;;;;;;5.55;62.61;96687.28;5027718;28;20689;-66
2024/02/14 02:07:39;;;;;;;10.67;7.27;;;;;;;5.44;62.81;96686.63;5027680;28;20195;-69
2024/02/14 02:10:05;;;;;;;8.50;6.53;;;;;;;5.56;62.63;96696.81;5027642;28;20556;-68
2024/02/14 02:12:30;;;;;;;13.97;6.90;;;;;;;5.48;62.73;96693.47;5027651;28;20411;-69
2024/02/14 02:14:56;;;;;;;9.47;7.10;;;;;;;5.45;62.85;96686.59;5027723;28;20746;-69
2024/02/14 02:17:21;;;;;;;10.20;6.30;;;;;;;5.55;62.63;96687.28;5027626;28;20195;-67
2024/02/14 02:19:47;;;;;;;8.33;7.47;;;;;;;5.42;62.93;96684.06;5027292;28;20262;-67
2024/02/14 02:22:12;;;;;;;12.20;7.30;;;;;;;5.46;63.25;96690.91;5026765;28;20187;-69
2024/02/14 02:24:37;;;;;;;13.23;8.03;;;;;;;5.43;62.87;96691.00;5027641;28;20631;-69
2024/02/14 02:27:04;;;;;;;10.00;7.93;;;;;;;5.50;63.45;96686.50;5027035;28;20299;-69
2024/02/14 02:29:31;;;;;;;10.43;7.10;;;;;;;5.47;63.03;96678.75;5027581;28;20251;-69
2024/02/14 02:31:56;;;;;;;8.77;6.50;;;;;;;5.57;63.39;96680.28;5028052;28;20414;-67
2024/02/14 02:34:21;;;;;;;9.30;6.17;;;;;;;5.50;63.37;96676.97;5027190;28;20421;-68
2024/02/14 02:36:50;;;;;;;8.40;5.60;;;;;;;5.52;63.86;96682.13;5026605;28;20344;-67
2024/02/14 02:39:15;;;;;;;7.70;5.67;;;;;;;5.39;64.00;96678.91;5026870;28;20678;-67
2024/02/14 02:41:41;;;;;;;10.53;5.70;;;;;;;5.52;63.91;96680.38;5026853;28;20414;-69
2024/02/14 02:44:06;;;;;;;10.37;5.70;;;;;;;5.49;63.96;96685.66;5026002;28;20231;-68
2024/02/14 02:46:32;;;;;;;7.60;5.63;;;;;;;5.52;64.05;96684.72;5026518;28;20178;-69
2024/02/14 02:48:58;;;;;;;8.67;5.70;;;;;;;5.61;63.48;96681.09;5027050;28;20183;-68
2024/02/14 02:51:24;;;;;;;6.87;5.40;;;;;;;5.55;63.68;96668.19;5026736;28;20186;-69
2024/02/14 02:53:49;;;;;;;7.37;5.60;;;;;;;5.37;64.77;96669.41;5026983;28;20909;-69
2024/02/14 02:56:15;;;;;;;7.40;5.63;;;;;;;5.24;65.28;96673.97;5026785;28;20206;-68
2024/02/14 02:58:40;;;;;;;8.70;6.17;;;;;;;5.37;65.35;96664.22;5026490;28;20749;-68
2024/02/14 03:01:09;;;;;;;9.10;5.70;;;;;;;5.44;65.31;96665.81;5026369;28;20171;-68
2024/02/14 03:03:36;;;;;;;7.70;6.10;;;;;;;5.60;64.72;96676.75;5026654;28;20199;-67
2024/02/14 03:06:03;;;;;;;8.77;6.10;;;;;;;5.40;65.82;96678.00;5026323;28;20948;-68
2024/02/14 03:08:30;;;;;;;6.20;5.60;;;;;;;5.49;65.44;96677.84;5027071;28;20976;-69
2024/02/14 03:11:02;;;;;;;5.77;5.13;;;;;;;5.42;65.50;96676.25;5026588;28;20418;-68
2024/02/14 03:13:28;;;;;;;7.37;5.53;;;;;;;5.46;65.28;96674.44;5026937;28;20406;-69
2024/02/14 03:15:53;;;;;;;8.30;5.90;;;;;;;5.47;65.78;96673.56;5026576;28;20419;-68
2024/02/14 03:18:19;;;;;;;6.67;5.97;;;;;;;5.61;65.29;96666.31;5025620;28;20491;-69
2024/02/14 03:20:44;;;;;;;6.80;5.90;;;;;;;5.67;64.70;96662.72;5026067;28;20171;-69
2024/02/14 03:23:10;;;;;;;6.27;5.30;;;;;;;5.64;65.05;96668.00;5026429;28;20195;-68
2024/02/14 03:25:36;;;;;;;7.33;5.57;;;;;;;5.60;65.39;96667.22;5026312;28;20175;-68
2024/02/14 03:28:08;;;;;;;6.93;5.20;;;;;;;5.65;65.27;96657.56;5026172;28;20187;-68
2024/02/14 03:30:36;;;;;;;7.60;6.27;;;;;;;5.72;65.11;96646.13;5025344;28;20406;-68
2024/02/14 03:33:03;;;;;;;7.50;6.80;;;;;;;5.76;64.49;96659.09;5025742;28;20414;-68
2024/02/14 03:35:28;;;;;;;7.30;5.10;;;;;;;5.72;64.35;96677.38;5025356;28;20540;-68
2024/02/14 03:37:53;;;;;;;5.87;5.07;;;;;;;5.67;64.91;96678.34;5025123;28;20426;-68
2024/02/14 03:40:22;;;;;;;7.30;5.30;;;;;;;5.70;64.61;96679.16;5025258;28;20580;-69
2024/02/14 03:42:48;;;;;;;6.13;5.53;;;;;;;5.77;64.91;96679.06;5025467;28;20919;-67
2024/02/14 03:45:13;;;;;;;8.00;6.07;;;;;;;5.86;64.66;96669.28;5025502;28;20518;-68
2024/02/14 03:47:39;;;;;;;6.20;5.00;;;;;;;5.77;64.80;96666.03;5024954;28;20199;-68
2024/02/14 03:50:06;;;;;;;9.97;6.50;;;;;;;5.81;64.97;96662.44;5025265;28;20175;-69
2024/02/14 03:52:32;;;;;;;7.67;5.57;;;;;;;5.94;64.49;96662.19;5025619;28;20596;-69
2024/02/14 03:54:59;;;;;;;7.70;6.90;;;;;;;5.83;64.58;96658.06;5028258;28;20450;-69
2024/02/14 03:57:25;;;;;;;12.17;6.20;;;;;;;5.92;64.30;96657.88;5030745;28;20194;-69
2024/02/14 03:59:52;;;;;;;8.07;5.87;;;;;;;5.77;64.46;96656.47;5031634;28;20592;-69
2024/02/14 04:02:18;;;;;;;6.87;5.87;;;;;;;5.86;64.20;96677.09;5030255;28;20425;-69
2024/02/14 04:04:46;;;;;;;5.60;5.10;;;;;;;5.84;65.23;96685.84;5030006;28;20414;-69
2024/02/14 04:07:12;;;;;;;8.00;5.70;;;;;;;5.79;65.50;96683.34;5034170;28;20440;-69
2024/02/14 04:09:37;;;;;;;5.57;5.00;;;;;;;5.89;64.63;96682.25;5034043;28;21194;-68
2024/02/14 04:12:03;;;;;;;13.43;5.63;;;;;;;6.02;64.09;96672.44;5030739;28;20229;-69
2024/02/14 04:14:29;;;;;;;5.60;5.10;;;;;;;5.91;64.44;96672.66;5029867;28;20241;-69
2024/02/14 04:16:54;;;;;;;7.30;6.03;;;;;;;5.93;64.56;96670.88;5029883;28;20199;-67
2024/02/14 04:19:20;;;;;;;9.37;5.33;;;;;;;5.90;64.87;96686.56;5029492;28;20724;-68
2024/02/14 04:21:46;;;;;;;6.80;5.73;;;;;;;5.89;64.80;96684.00;5029361;28;20226;-68
2024/02/14 04:24:11;;;;;;;10.17;6.60;;;;;;;5.87;64.86;96677.97;5030244;28;20185;-69
2024/02/14 04:26:37;;;;;;;10.03;6.00;;;;;;;5.87;64.78;96673.59;5029701;28;20434;-68
2024/02/14 04:29:02;;;;;;;14.93;7.00;;;;;;;5.90;64.70;96678.75;5029822;28;20178;-69
2024/02/14 04:31:29;;;;;;;14.33;6.37;;;;;;;5.82;65.26;96679.81;5030123;28;20580;-69
2024/02/14 04:33:55;;;;;;;8.83;6.00;;;;;;;5.90;65.20;96677.88;5029334;28;20237;-67
2024/02/14 04:36:22;;;;;;;11.97;6.20;;;;;;;5.88;65.17;96693.56;5028989;28;20441;-68
2024/02/14 04:38:48;;;;;;;10.80;6.90;;;;;;;5.84;65.59;96702.31;5028596;28;20470;-68
2024/02/14 04:41:14;;;;;;;15.13;6.90;;;;;;;5.85;65.76;96698.81;5029031;28;20422;-69
2024/02/14 04:43:40;;;;;;;12.53;6.63;;;;;;;5.88;66.03;96698.78;5029206;28;20448;-69
2024/02/14 04:46:06;;;;;;;8.03;6.20;;;;;;;6.09;64.92;96687.06;5028765;28;20187;-70
2024/02/14 04:48:36;;;;;;;9.63;6.53;;;;;;;6.11;64.69;96690.50;5029077;28;20195;-70
2024/02/14 04:51:02;;;;;;;11.43;6.77;;;;;;;6.04;64.83;96688.06;5028677;28;20509;-66
2024/02/14 04:53:28;;;;;;;8.20;6.07;;;;;;;6.08;64.54;96695.78;5028783;28;20644;-68
2024/02/14 04:55:53;;;;;;;8.67;5.60;;;;;;;6.13;64.71;96688.72;5028590;28;20175;-67
2024/02/14 04:58:19;;;;;;;9.40;7.10;;;;;;;6.16;64.87;96690.38;5028608;28;20207;-68
2024/02/14 05:00:45;;;;;;;9.00;6.57;;;;;;;6.08;64.40;96689.72;5028382;28;20235;-70
2024/02/14 05:03:11;;;;;;;7.63;5.57;;;;;;;6.07;65.04;96691.47;5028400;28;21042;-68
2024/02/14 05:05:37;;;;;;;6.30;5.60;;;;;;;6.08;65.23;96680.13;5028102;28;20194;-68
2024/02/14 05:08:03;;;;;;;12.30;6.30;;;;;;;6.10;65.01;96687.94;5028616;28;20199;-68
2024/02/14 05:10:28;;;;;;;7.30;5.70;;;;;;;6.08;64.56;96685.34;5028218;28;20462;-69
2024/02/14 05:12:54;;;;;;;6.77;5.20;;;;;;;6.13;65.23;96688.72;5028731;28;20591;-69
2024/02/14 05:15:20;;;;;;;7.07;5.40;;;;;;;6.24;64.68;96683.28;5028977;28;20257;-69
2024/02/14 05:17:45;;;;;;;6.07;5.30;;;;;;;6.19;65.12;96671.22;5028916;28;20269;-68
2024/02/14 05:20:11;;;;;;;9.50;5.43;;;;;;;6.01;65.80;96673.34;5012794;28;20203;-68
2024/02/14 05:22:38;;;;;;;10.13;5.03;;;;;;;6.14;65.46;96677.41;5025412;28;20659;-69
2024/02/14 05:25:04;;;;;;;8.20;6.00;;;;;;;6.24;65.13;96675.47;5030652;28;20172;-68
2024/02/14 05:27:31;;;;;;;6.80;6.10;;;;;;;6.22;65.04;96677.22;5043210;28;20496;-68
2024/02/14 05:29:57;;;;;;;7.97;5.40;;;;;;;6.24;65.20;96672.84;5047167;28;20441;-68
2024/02/14 05:32:23;;;;;;;6.80;5.33;;;;;;;6.17;65.26;96670.44;5044350;28;20433;-69
2024/02/14 05:34:49;;;;;;;7.33;5.33;;;;;;;6.13;65.31;96672.22;5015630;28;20434;-68
2024/02/14 05:37:14;;;;;;;6.40;5.80;;;;;;;6.14;65.44;96671.31;5027623;28;20544;-68
2024/02/14 05:39:40;;;;;;;8.63;6.50;;;;;;;6.05;65.86;96682.81;5023059;28;20207;-68
2024/02/14 05:42:05;;;;;;;7.90;6.30;;;;;;;6.06;65.89;96681.06;5028017;28;20179;-69
2024/02/14 05:44:31;;;;;;;6.30;5.43;;;;;;;6.12;65.87;96696.56;5028434;28;20178;-69
2024/02/14 05:46:56;;;;;;;10.63;6.17;;;;;;;6.21;65.65;96708.53;5021015;28;20206;-68
2024/02/14 05:49:22;;;;;;;7.37;6.20;;;;;;;6.40;65.21;96719.41;5020835;28;20186;-68
2024/02/14 05:51:47;;;;;;;7.03;6.33;;;;;;;6.35;65.23;96722.13;5027637;28;20203;-68
2024/02/14 05:54:13;;;;;;;7.07;5.80;;;;;;;6.42;64.53;96713.25;5027516;28;20171;-69
2024/02/14 05:56:38;;;;;;;8.93;5.80;;;;;;;6.40;65.33;96725.47;5015139;28;20250;-67
2024/02/14 05:59:04;;;;;;;8.07;6.30;;;;;;;6.27;65.57;96735.31;5013039;28;20210;-68
2024/02/14 06:01:30;;;;;;;6.40;5.80;;;;;;;6.25;65.76;96729.28;5026542;28;20196;-68
2024/02/14 06:03:55;;;;;;;13.30;5.90;;;;;;;6.25;65.76;96729.28;5026571;28;20245;-69
2024/02/14 06:06:21;;;;;;;11.30;6.57;;;;;;;6.42;65.23;96731.50;5026801;28;20171;-68
2024/02/14 06:08:47;;;;;;;9.80;6.57;;;;;;;6.31;65.73;96723.94;5027272;28;20195;-68
2024/02/14 06:11:14;;;;;;;7.80;6.13;;;;;;;6.25;65.21;96724.06;5027522;28;20569;-71
2024/02/14 06:13:39;;;;;;;12.80;8.10;;;;;;;6.32;65.65;96724.78;5024234;28;20458;-68
2024/02/14 06:16:05;;;;;;;7.27;4.87;;;;;;;6.25;66.18;96718.00;5027777;28;20418;-69
2024/02/14 06:18:30;;;;;;;8.20;5.50;;;;;;;6.39;65.23;96715.09;5027576;28;20936;-70
2024/02/14 06:20:56;;;;;;;10.83;5.60;;;;;;;6.33;65.97;96713.47;5026841;28;20868;-68
2024/02/14 06:23:21;;;;;;;19.83;6.77;;;;;;;6.37;65.04;96728.16;5027300;28;20274;-69
2024/02/14 06:25:46;;;;;;;6.80;5.77;;;;;;;6.39;65.29;96723.78;5042023;28;20175;-67
2024/02/14 06:28:12;;;;;;;11.20;5.60;;;;;;;6.28;65.49;96715.31;5018486;28;21044;-67
2024/02/14 06:30:37;;;;;;;10.63;6.30;;;;;;;6.30;66.00;96713.53;5010635;28;20187;-69
2024/02/14 06:33:03;;;;;;;9.73;6.10;;;;;;;6.52;65.01;96706.97;5016201;28;20241;-68
2024/02/14 06:35:29;;;;;;;7.47;5.50;;;;;;;6.45;64.99;96714.94;5014799;28;20559;-70
2024/02/14 06:37:54;;;;;;;10.30;5.53;;;;;;;6.54;64.64;96710.41;5010437;28;20302;-71
2024/02/14 06:40:20;;;;;;;8.13;4.97;;;;;;;6.49;65.11;96704.41;5011989;28;20238;-67
2024/02/14 06:42:45;;;;;;;8.83;6.33;;;;;;;6.35;65.44;96709.97;5019540;28;20187;-70
2024/02/14 06:45:11;;;;;;;5.80;5.30;;;;;;;6.41;65.34;96713.31;5014134;28;20183;-67
2024/02/14 06:47:36;;;;;;;7.30;5.50;;;;;;;6.42;65.04;96715.88;5018471;28;20195;-68
2024/02/14 06:50:01;;;;;;;9.57;6.10;;;;;;;6.61;64.69;96713.69;5013318;28;20208;-71
2024/02/14 06:52:27;;;;;;;7.30;5.70;;;;;;;6.55;64.62;96706.03;5013799;28;20194;-69
2024/02/14 06:54:52;;;;;;;8.43;6.03;;;;;;;6.53;64.63;96715.66;5006953;28;20540;-70
2024/02/14 06:57:18;;;;;;;8.97;5.07;;;;;;;6.58;64.21;96716.38;5018745;28;20203;-70
2024/02/14 06:59:43;;;;;;;7.70;6.00;;;;;;;6.55;64.50;96721.69;5018334;28;20231;-68
2024/02/14 07:02:08;;;;;;;7.03;4.93;;;;;;;6.57;64.73;96735.53;5010935;28;20228;-69
2024/02/14 07:04:34;;;;;;;14.03;6.17;;;;;;;6.58;64.56;96743.31;5024350;28;20237;-71
2024/02/14 07:07:00;;;;;;;7.47;6.33;;;;;;;6.56;64.31;96739.88;5026625;28;20230;-69
2024/02/14 07:09:26;;;;;;;7.63;5.13;;;;;;;6.68;64.17;96740.50;5026857;28;20183;-70
2024/02/14 07:11:53;;;;;;;6.03;5.40;;;;;;;6.51;65.07;96740.88;5027695;28;20418;-67
2024/02/14 07:14:19;;;;;;;10.10;5.03;;;;;;;6.50;64.65;96739.19;5018592;28;20178;-68
2024/02/14 07:16:44;;;;;;;9.17;4.67;;;;;;;6.56;64.59;96732.06;5027859;28;20429;-69
2024/02/14 07:19:10;;;;;;;7.60;5.10;;;;;;;6.61;64.64;96746.75;5025212;28;20253;-68
2024/02/14 07:21:37;;;;;;;7.80;4.97;;;;;;;6.62;64.76;96754.56;5024535;28;20176;-68
2024/02/14 07:24:04;;;;;;;6.53;4.90;;;;;;;6.65;64.98;96767.50;5024665;28;20179;-69
2024/02/14 07:26:29;;;;;;;5.20;4.67;;;;;;;6.62;64.52;96753.69;5016983;28;20527;-68
2024/02/14 07:28:54;;;;;;;9.33;5.10;;;;;;;6.61;64.87;96752.81;5019413;28;20584;-68
2024/02/14 07:31:20;;;;;;;9.03;4.90;;;;;;;6.67;65.15;96754.44;5025780;28;20852;-70
2024/02/14 07:33:47;;;;;;;7.70;4.60;;;;;;;6.76;64.41;96743.81;5027321;28;20175;-69
2024/02/14 07:36:12;;;;;;;5.77;4.67;;;;;;;6.78;64.32;96737.66;5027196;28;20191;-69
2024/02/14 07:38:38;;;;;;;8.47;5.00;;;;;;;6.71;64.28;96748.28;5027301;28;20438;-69
2024/02/14 07:41:04;;;;;;;10.80;4.73;;;;;;;6.76;64.20;96746.41;5019800;28;20178;-69
2024/02/14 07:43:29;;;;;;;14.43;5.57;;;;;;;6.86;64.16;96753.13;5020912;28;20612;-69
2024/02/14 07:45:54;;;;;;;14.93;6.60;;;;;;;6.82;64.50;96751.47;5022866;28;21059;-70
2024/02/14 07:48:22;;;;;;;9.60;5.73;;;;;;;6.89;64.03;96753.03;5026622;28;20187;-68
2024/02/14 07:50:47;;;;;;;13.23;5.13;;;;;;;6.93;63.85;96749.47;5022027;28;20681;-68
2024/02/14 07:53:13;;;;;;;9.97;5.63;;;;;;;7.11;63.86;96749.91;5030418;28;20415;-69
2024/02/14 07:55:39;;;;;;;10.57;5.73;;;;;;;7.12;64.11;96743.81;5026849;28;20658;-70
2024/02/14 07:58:05;;;;;;;10.00;4.80;;;;;;;7.00;63.96;96750.19;5023780;28;20257;-69
2024/02/14 08:00:30;;;;;;;16.60;5.77;;;;;;;7.15;64.05;96755.00;5021908;28;20466;-69
2024/02/14 08:02:56;;;;;;;9.13;5.63;;;;;;;7.04;63.51;96741.41;5024824;28;20183;-69
2024/02/14 08:05:21;;;;;;;9.30;5.37;;;;;;;7.12;64.00;96746.41;5013572;28;20206;-68
2024/02/14 08:07:47;;;;;;;9.70;5.17;;;;;;;7.26;63.27;96740.88;5027296;28;20599;-69
2024/02/14 08:10:12;;;;;;;15.53;5.60;;;;;;;7.29;63.08;96738.16;5026695;28;20163;-69
2024/02/14 08:12:38;;;;;;;7.40;5.50;;;;;;;7.30;63.21;96735.53;5025229;28;20645;-68
2024/02/14 08:15:04;;;;;;;5.93;5.37;;;;;;;7.30;63.55;96732.91;5024688;28;20175;-67
2024/02/14 08:17:30;;;;;;;5.60;4.93;;;;;;;7.26;63.39;96752.16;5021740;28;20207;-68
2024/02/14 08:19:55;;;;;;;11.07;5.90;;;;;;;7.36;63.54;96764.06;5012035;28;20485;-68
2024/02/14 08:22:20;;;;;;;13.20;5.37;;;;;;;7.56;62.85;96765.31;5022846;28;20639;-68
2024/02/14 08:24:46;;;;;;;5.40;4.90;;;;;;;7.56;62.35;96762.69;5021110;28;20803;-68
2024/02/14 08:27:11;;;;;;;10.97;5.13;;;;;;;7.53;62.32;96763.63;5027347;28;20918;-67
2024/02/14 08:29:37;;;;;;;5.97;4.33;;;;;;;7.52;62.42;96756.72;5018760;28;20171;-68
2024/02/14 08:32:03;;;;;;;5.43;4.33;;;;;;;7.60;61.97;96759.09;5025058;28;20244;-68
2024/02/14 08:34:29;;;;;;;8.60;5.13;;;;;;;7.65;61.69;96762.44;5027625;28;20296;-67
2024/02/14 08:36:55;;;;;;;23.73;6.37;;;;;;;7.72;61.41;96779.69;5034647;28;20441;-67
2024/02/14 08:39:20;;;;;;;13.40;5.90;;;;;;;7.76;60.97;96783.94;5032320;28;20192;-68
2024/02/14 08:41:46;;;;;;;8.20;4.33;;;;;;;7.78;60.94;96778.69;5030304;28;20435;-67
2024/02/14 08:44:13;;;;;;;12.10;4.73;;;;;;;7.87;61.00;96786.28;5036364;28;20167;-69
2024/02/14 08:46:39;;;;;;;12.13;5.07;;;;;;;7.94;60.55;96771.28;5038638;28;20406;-68
2024/02/14 08:49:08;;;;;;;9.10;5.13;;;;;;;7.97;61.11;96764.19;5034938;28;20538;-67
2024/02/14 08:51:37;;;;;;;7.23;4.87;;;;;;;8.07;60.94;96759.56;5033234;28;20414;-69
2024/02/14 08:54:05;;;;;;;4.37;3.93;;;;;;;8.09;59.91;96755.16;5031803;28;20770;-67
2024/02/14 08:56:33;;;;;;;9.60;4.80;;;;;;;8.16;60.12;96759.31;5030745;28;20525;-68
2024/02/14 08:59:00;;;;;;;6.67;4.87;;;;;;;8.27;60.16;96767.72;5032406;28;20609;-68
2024/02/14 09:01:26;;;;;;;5.60;3.60;;;;;;;8.35;60.01;96771.88;5021290;28;20426;-69
2024/02/14 09:03:51;;;;;;;7.67;4.70;;;;;;;8.39;59.64;96769.13;5032517;28;20421;-68
2024/02/14 09:06:20;;;;;;;8.03;5.50;;;;;;;8.50;58.66;96762.72;5029870;28;20313;-69
2024/02/14 09:08:46;;;;;;;4.80;4.30;;;;;;;8.45;59.21;96768.09;5035819;28;20253;-68
2024/02/14 09:11:12;;;;;;;8.97;4.40;;;;;;;8.42;58.46;96761.19;5036750;28;20414;-68
2024/02/14 09:13:38;;;;;;;9.40;4.37;;;;;;;8.58;58.61;96763.38;5033243;28;20541;-68
2024/02/14 09:16:05;;;;;;;8.93;4.40;;;;;;;8.59;59.01;96759.84;5029065;28;20418;-69
2024/02/14 09:18:31;;;;;;;4.73;4.33;;;;;;;8.67;58.15;96774.41;5026557;28;20450;-67
2024/02/14 09:20:57;;;;;;;13.10;6.37;;;;;;;8.84;58.29;96770.44;5028673;28;20421;-69
2024/02/14 09:23:22;;;;;;;8.20;4.50;;;;;;;8.95;58.49;96755.22;5021859;28;20434;-69
2024/02/14 09:25:48;;;;;;;6.10;4.33;;;;;;;9.21;56.92;96758.75;5028255;28;20233;-68
2024/02/14 09:28:15;;;;;;;6.50;3.80;;;;;;;9.72;56.32;96760.53;5027833;28;20195;-69
2024/02/14 09:30:41;;;;;;;5.77;4.30;;;;;;;10.00;55.34;96752.56;5028160;28;20406;-68
2024/02/14 09:33:07;;;;;;;9.57;5.20;;;;;;;10.34;54.54;96759.22;5022978;28;20434;-68
2024/02/14 09:35:32;;;;;;;9.60;3.87;;;;;;;12.27;71.27;96748.69;5021322;28;20183;-69
2024/02/14 09:37:58;;;;;;;7.87;3.90;;;;;;;13.51;65.93;96735.81;5027818;28;20297;-69
2024/02/14 09:40:25;;;;;;;5.97;4.30;;;;;;;14.09;63.33;96737.28;5027542;28;20649;-66
2024/02/14 09:42:55;;;;;;;5.90;3.70;;;;;;;14.63;60.07;96722.06;5027205;28;20421;-70
2024/02/14 09:45:24;;;;;;;16.77;3.90;;;;;;;14.98;57.93;96730.69;5027691;28;20409;-69
2024/02/14 09:47:50;;;;;;;17.23;5.60;;;;;;;15.49;56.72;96733.06;5013883;28;20454;-68
2024/02/14 09:50:16;;;;;;;11.47;3.90;;;;;;;15.63;54.50;96735.75;5027379;28;20410;-69
2024/02/14 09:52:43;;;;;;;10.10;4.40;;;;;;;15.60;53.41;96721.88;5023932;28;20215;-69
2024/02/14 09:55:09;;;;;;;4.90;3.53;;;;;;;15.18;46.83;96726.06;5027138;28;20175;-69
2024/02/14 09:57:38;;;;;;;7.80;3.77;;;;;;;15.21;50.80;96728.50;5026762;28;21469;-69
2024/02/14 10:00:04;;;;;;;9.23;4.03;;;;;;;15.28;48.41;96732.50;5026548;28;20476;-69
2024/02/14 10:02:30;;;;;;;7.03;3.20;;;;;;;15.37;49.80;96726.69;5026359;28;20414;-71
2024/02/14 10:04:56;;;;;;;10.23;4.13;;;;;;;15.29;48.79;96723.66;5026587;28;21106;-70
2024/02/14 10:07:21;;;;;;;4.30;3.50;;;;;;;15.30;44.47;96730.63;5026215;28;20203;-68
2024/02/14 10:09:48;;;;;;;7.80;3.20;;;;;;;15.82;47.91;96735.56;5027614;28;20595;-67
2024/02/14 10:12:13;;;;;;;7.53;3.90;;;;;;;15.04;42.79;96740.91;5020274;28;20195;-69
2024/02/14 10:14:40;;;;;;;7.40;3.87;;;;;;;15.70;48.87;96738.94;5017222;28;20426;-68
2024/02/14 10:17:05;;;;;;;8.27;4.67;;;;;;;14.95;42.30;96733.50;5028489;28;20805;-68
2024/02/14 10:19:31;;;;;;;9.40;3.70;;;;;;;13.87;44.42;96750.75;5011121;28;20561;-68
2024/02/14 10:22:01;;;;;;;4.43;3.60;;;;;;;13.60;45.47;96742.44;5027725;28;20175;-70
2024/02/14 10:24:30;;;;;;;7.63;3.57;;;;;;;13.63;45.63;96742.28;5027795;28;20798;-70
2024/02/14 10:26:57;;;;;;;6.10;3.67;;;;;;;13.57;45.48;96727.63;5028351;28;20529;-70
2024/02/14 10:29:24;;;;;;;5.23;3.70;;;;;;;13.58;45.99;96731.94;5027593;28;20414;-69
2024/02/14 10:31:50;;;;;;;5.90;3.70;;;;;;;13.24;46.81;96725.69;5026581;28;20434;-72
2024/02/14 10:34:16;;;;;;;6.90;4.10;;;;;;;12.65;48.25;96729.44;5021022;28;20493;-70
2024/02/14 10:36:45;;;;;;;5.30;3.27;;;;;;;12.67;48.55;96735.50;5027242;28;20187;-67
2024/02/14 10:39:11;;;;;;;7.10;3.43;;;;;;;12.60;49.11;96748.06;5026497;28;20462;-67
2024/02/14 10:41:37;;;;;;;6.03;3.17;;;;;;;12.53;50.39;96730.00;5027604;28;20436;-67
2024/02/14 10:44:05;;;;;;;3.37;2.47;;;;;;;12.58;50.44;96738.53;5036516;28;20411;-71
2024/02/14 10:46:37;;;;;;;5.80;2.60;;;;;;;12.54;50.36;96734.34;5040047;28;20194;-69
2024/02/14 10:49:04;;;;;;;4.50;3.40;;;;;;;12.56;50.85;96732.50;5024189;28;20425;-69
2024/02/14 10:51:35;;;;;;;8.17;3.80;;;;;;;12.46;51.44;96727.66;5030025;28;20418;-66
2024/02/14 10:54:16;;;;;;;5.30;3.10;;;;;;;12.85;50.72;96726.72;5027484;28;20424;-68
2024/02/14 10:56:45;;;;;;;6.30;3.80;;;;;;;12.92;50.36;96728.13;5016658;28;20847;-67
2024/02/14 10:59:16;;;;;;;3.63;3.00;;;;;;;12.90;50.22;96721.22;5025950;28;20458;-68
2024/02/14 11:01:42;;;;;;;6.10;3.20;;;;;;;13.10;49.56;96715.00;5028800;28;20436;-67
2024/02/14 11:04:08;;;;;;;5.23;3.20;;;;;;;13.38;49.17;96718.94;5027025;28;20449;-68
2024/02/14 11:07:02;;;;;;;3.60;3.30;;;;;;;13.67;49.11;96715.66;5026107;28;20450;-68
2024/02/14 11:09:35;;;;;;;10.20;3.60;;;;;;;13.70;48.41;96712.88;5027320;28;20210;-66
2024/02/14 11:12:02;;;;;;;5.27;3.43;;;;;;;13.86;47.51;96712.94;5018005;28;20450;-67
2024/02/14 11:14:32;;;;;;;6.27;3.73;;;;;;;14.00;47.27;96714.84;5026231;28;20429;-66
2024/02/14 11:17:00;;;;;;;4.80;3.50;;;;;;;13.90;47.40;96706.56;5016209;28;20907;-69
2024/02/14 11:19:36;;;;;;;6.43;3.40;;;;;;;13.80;47.77;96704.50;5029059;28;20481;-66
2024/02/14 11:22:19;;;;;;;3.70;3.07;;;;;;;13.74;47.48;96708.28;5034020;28;20428;-66
2024/02/14 11:24:48;;;;;;;8.83;4.00;;;;;;;14.00;47.26;96709.56;5035189;28;20414;-67
2024/02/14 11:27:15;;;;;;;6.90;3.27;;;;;;;14.01;46.33;96700.75;5034214;28;20461;-67
2024/02/14 11:29:43;;;;;;;5.03;3.03;;;;;;;14.06;46.29;96706.63;5027377;28;20422;-66
2024/02/14 11:32:11;;;;;;;4.43;2.80;;;;;;;14.29;45.98;96707.16;5028972;28;20948;-68
2024/02/14 11:34:36;;;;;;;4.20;3.50;;;;;;;14.33;45.69;96709.56;5029523;28;20417;-68